createdAt,value
2022-12-25T13:53:30.461Z,49.02
2022-12-25T13:54:30.405Z,48.39
2022-12-25T13:55:30.343Z,49.18
2022-12-25T13:56:30.305Z,49.90
2022-12-25T13:57:30.294Z,52.08
2022-12-25T13:58:30.366Z,51.51
2022-12-25T13:59:30.274Z,51.15
2022-12-25T14:00:30.301Z,50.57
2022-12-25T14:01:30.449Z,51.37
2022-12-25T14:02:30.422Z,51.12
2022-12-25T14:03:30.331Z,50.10
2022-12-25T14:04:30.242Z,51.47
2022-12-25T14:05:33.419Z,50.65
2022-12-25T14:06:31.299Z,50.77
2022-12-25T14:07:30.236Z,49.55
2022-12-25T14:08:30.271Z,48.65
2022-12-25T14:09:30.209Z,48.81
2022-12-25T14:10:30.194Z,49.12
2022-12-25T14:11:30.192Z,49.52
2022-12-25T14:12:30.202Z,48.47
2022-12-25T14:13:30.212Z,50.56
2022-12-25T14:14:30.154Z,52.09
2022-12-25T14:15:30.232Z,50.88
2022-12-25T14:16:30.241Z,50.80
2022-12-25T14:17:30.157Z,50.76
2022-12-25T14:18:30.137Z,50.20
2022-12-25T14:19:30.162Z,49.94
2022-12-25T14:20:30.139Z,51.68
2022-12-25T14:21:30.116Z,53.18
2022-12-25T14:22:30.133Z,50.25
2022-12-25T14:23:30.131Z,50.69
2022-12-25T14:24:30.133Z,50.43
2022-12-25T14:25:31.083Z,50.18
2022-12-25T14:26:30.140Z,49.65
2022-12-25T14:27:30.090Z,51.05
2022-12-25T14:28:30.129Z,49.17
2022-12-25T14:29:30.067Z,50.35
2022-12-25T14:30:30.149Z,50.64
2022-12-25T14:31:30.138Z,51.42
2022-12-25T14:32:30.106Z,49.85
2022-12-25T14:33:30.126Z,50.94
2022-12-25T14:34:30.066Z,51.36
2022-12-25T14:35:29.999Z,52.05
2022-12-25T14:36:30.060Z,49.93
2022-12-25T14:37:29.983Z,50.03
2022-12-25T14:38:30.037Z,50.28
2022-12-25T14:39:29.997Z,49.68
2022-12-25T14:40:30.003Z,48.56
2022-12-25T14:41:30.007Z,51.12
2022-12-25T14:42:29.938Z,51.86
2022-12-25T14:43:29.973Z,51.17
2022-12-25T14:44:29.994Z,51.86
2022-12-25T14:45:29.958Z,50.43
2022-12-25T14:46:30.020Z,51.16
2022-12-25T14:47:29.917Z,50.99
2022-12-25T14:48:29.929Z,50.20
2022-12-25T14:49:29.955Z,51.92
2022-12-25T14:50:29.920Z,51.84
2022-12-25T14:51:29.927Z,51.29
2022-12-25T14:52:29.974Z,50.86
2022-12-25T14:53:29.910Z,51.95
2022-12-25T14:54:29.928Z,51.81
2022-12-25T14:55:29.900Z,51.63
2022-12-25T14:56:29.838Z,53.49
2022-12-25T14:57:29.900Z,52.01
2022-12-25T14:58:29.855Z,51.18
2022-12-25T14:59:29.858Z,52.79
2022-12-25T15:00:29.837Z,52.40
2022-12-25T15:01:29.976Z,52.14
2022-12-25T15:02:30.032Z,52.05
2022-12-25T15:03:29.889Z,53.21
2022-12-25T15:04:30.708Z,51.11
2022-12-25T15:05:30.008Z,53.10
2022-12-25T15:06:29.846Z,51.69
2022-12-25T15:07:29.813Z,52.15
2022-12-25T15:08:29.817Z,53.32
2022-12-25T15:09:29.938Z,51.80
2022-12-25T15:10:58.970Z,52.68
2022-12-25T15:11:31.752Z,55.06
2022-12-25T15:12:29.779Z,52.42
2022-12-25T15:13:29.739Z,53.43
2022-12-25T15:14:29.852Z,54.46
2022-12-25T15:15:29.859Z,52.04
2022-12-25T15:16:29.850Z,51.75
2022-12-25T15:17:29.770Z,50.71
2022-12-25T15:18:29.711Z,52.41
2022-12-25T15:19:36.561Z,52.37
2022-12-25T15:20:31.768Z,51.73
2022-12-25T15:21:29.743Z,52.17
2022-12-25T15:22:47.768Z,52.50
2022-12-25T15:23:31.675Z,53.03
2022-12-25T15:24:29.668Z,51.25
2022-12-25T15:25:29.675Z,50.46
2022-12-25T15:26:29.737Z,52.70
2022-12-25T15:27:29.649Z,51.37
2022-12-25T15:28:29.686Z,55.01
2022-12-25T15:30:07.755Z,53.40
2022-12-25T15:30:31.678Z,53.24
2022-12-25T15:31:29.696Z,51.77
2022-12-25T15:32:29.608Z,52.60
2022-12-25T15:33:29.654Z,49.74
2022-12-25T15:34:29.609Z,52.51
2022-12-25T15:35:29.629Z,51.15
2022-12-25T15:36:29.571Z,49.76
2022-12-25T15:37:29.637Z,51.74
2022-12-25T15:38:29.588Z,52.34
2022-12-25T15:39:29.619Z,53.67
2022-12-25T15:40:29.532Z,54.54
2022-12-25T15:41:29.603Z,51.13
2022-12-25T15:42:29.548Z,52.95
2022-12-25T15:43:44.392Z,52.64
2022-12-25T15:44:31.561Z,52.16
2022-12-25T15:45:29.503Z,51.36
2022-12-25T15:46:29.556Z,52.80
2022-12-25T15:47:30.520Z,51.54
2022-12-25T15:48:29.566Z,51.69
2022-12-25T15:49:29.518Z,53.31
2022-12-25T15:50:29.518Z,52.26
2022-12-25T15:51:29.508Z,50.83
2022-12-25T15:52:29.516Z,50.70
2022-12-25T15:53:29.479Z,49.70
2022-12-25T15:54:29.502Z,49.38
2022-12-25T15:55:29.496Z,50.48
2022-12-25T15:56:29.463Z,51.09
2022-12-25T15:57:29.472Z,51.71
2022-12-25T15:58:29.459Z,51.61
2022-12-25T15:59:29.447Z,52.41
2022-12-25T16:00:29.393Z,51.14
2022-12-25T16:01:29.537Z,52.70
2022-12-25T16:02:29.568Z,52.19
2022-12-25T16:03:30.067Z,52.37
2022-12-25T16:04:29.443Z,50.82
2022-12-25T16:05:29.456Z,51.18
2022-12-25T16:06:29.418Z,50.55
2022-12-25T16:07:29.369Z,51.24
2022-12-25T16:08:29.423Z,50.53
2022-12-25T16:09:29.338Z,48.76
2022-12-25T16:10:34.889Z,49.54
2022-12-25T16:11:31.390Z,49.47
2022-12-25T16:12:29.349Z,48.04
2022-12-25T16:13:29.515Z,49.54
2022-12-25T16:14:29.343Z,51.11
2022-12-25T16:15:29.352Z,50.98
2022-12-25T16:16:29.413Z,51.19
2022-12-25T16:17:29.324Z,52.99
2022-12-25T16:18:29.383Z,50.77
2022-12-25T16:19:29.339Z,49.11
2022-12-25T16:20:29.446Z,51.01
2022-12-25T16:21:29.282Z,50.41
2022-12-25T16:22:29.263Z,51.33
2022-12-25T16:23:29.266Z,50.09
2022-12-25T16:24:29.335Z,51.29
2022-12-25T16:25:29.288Z,50.98
2022-12-25T16:26:29.262Z,51.63
2022-12-25T16:27:29.265Z,51.27
2022-12-25T16:28:29.223Z,52.00
2022-12-25T16:29:29.264Z,51.82
2022-12-25T16:30:29.259Z,51.13
2022-12-25T16:31:29.298Z,51.45
2022-12-25T16:32:29.226Z,53.40
2022-12-25T16:33:29.292Z,52.83
2022-12-25T16:34:29.174Z,52.60
2022-12-25T16:35:29.230Z,51.80
2022-12-25T16:36:29.173Z,51.19
2022-12-25T16:37:30.005Z,53.07
2022-12-25T16:38:29.185Z,51.97
2022-12-25T16:39:29.178Z,54.29
2022-12-25T16:40:29.191Z,51.72
2022-12-25T16:41:29.133Z,51.13
2022-12-25T16:42:29.142Z,49.93
2022-12-25T16:43:29.174Z,53.38
2022-12-25T16:44:29.145Z,53.59
2022-12-25T16:45:29.100Z,53.27
2022-12-25T16:46:29.208Z,50.94
2022-12-25T16:47:29.094Z,52.01
2022-12-25T16:48:29.117Z,51.06
2022-12-25T16:49:29.096Z,50.87
2022-12-25T16:50:29.095Z,51.78
2022-12-25T16:51:29.073Z,51.59
2022-12-25T16:52:29.055Z,50.07
2022-12-25T16:53:29.046Z,52.56
2022-12-25T16:54:29.070Z,53.84
2022-12-25T16:55:30.400Z,51.31
2022-12-25T16:56:30.050Z,51.59
2022-12-25T16:57:29.045Z,50.86
2022-12-25T16:58:29.073Z,51.55
2022-12-25T16:59:29.073Z,52.25
2022-12-25T17:00:29.030Z,51.11
2022-12-25T17:01:29.134Z,51.72
2022-12-25T17:02:29.209Z,52.88
2022-12-25T17:03:29.075Z,51.48
2022-12-25T17:04:29.002Z,50.63
2022-12-25T17:05:28.955Z,51.66
2022-12-25T17:06:29.008Z,53.06
2022-12-25T17:07:28.948Z,53.13
2022-12-25T17:08:28.958Z,51.83
2022-12-25T17:09:28.932Z,50.50
2022-12-25T17:10:29.006Z,51.32
2022-12-25T17:11:28.921Z,54.07
2022-12-25T17:12:28.979Z,51.85
2022-12-25T17:13:28.890Z,53.77
2022-12-25T17:14:28.952Z,52.57
2022-12-25T17:15:28.889Z,51.45
2022-12-25T17:16:29.011Z,51.84
2022-12-25T17:17:28.958Z,49.26
2022-12-25T17:18:28.877Z,51.95
2022-12-25T17:19:28.899Z,52.69
2022-12-25T17:20:28.942Z,51.91
2022-12-25T17:21:28.921Z,51.69
2022-12-25T17:22:28.844Z,50.83
2022-12-25T17:23:28.829Z,51.67
2022-12-25T17:24:28.942Z,50.40
2022-12-25T17:25:28.854Z,51.60
2022-12-25T17:26:28.865Z,52.06
2022-12-25T17:27:28.838Z,54.24
2022-12-25T17:28:28.824Z,53.73
2022-12-25T17:29:28.794Z,49.61
2022-12-25T17:30:28.830Z,50.52
2022-12-25T17:31:28.870Z,51.72
2022-12-25T17:32:28.777Z,52.68
2022-12-25T17:33:28.796Z,52.15
2022-12-25T17:34:28.821Z,52.10
2022-12-25T17:35:28.767Z,51.27
2022-12-25T17:36:28.857Z,53.25
2022-12-25T17:37:28.739Z,53.21
2022-12-25T17:38:28.747Z,53.33
2022-12-25T17:39:28.720Z,54.54
2022-12-25T17:40:28.722Z,54.83
2022-12-25T17:41:28.799Z,54.27
2022-12-25T17:42:28.678Z,53.66
2022-12-25T17:43:28.760Z,54.26
2022-12-25T17:44:28.754Z,54.84
2022-12-25T17:45:28.741Z,53.90
2022-12-25T17:46:28.899Z,52.53
2022-12-25T17:47:28.669Z,53.12
2022-12-25T17:48:28.687Z,52.71
2022-12-25T17:49:28.692Z,54.47
2022-12-25T17:50:28.674Z,53.38
2022-12-25T17:51:28.670Z,52.11
2022-12-25T17:52:28.685Z,52.51
2022-12-25T17:53:28.661Z,53.84
2022-12-25T17:54:28.597Z,52.64
2022-12-25T17:55:28.618Z,52.47
2022-12-25T17:56:28.629Z,52.86
2022-12-25T17:57:28.614Z,53.24
2022-12-25T17:58:28.648Z,52.55
2022-12-25T17:59:28.627Z,52.88
2022-12-25T18:00:29.371Z,53.38
2022-12-25T18:01:28.851Z,53.62
2022-12-25T18:02:28.820Z,54.59
2022-12-25T18:03:28.738Z,54.43
2022-12-25T18:04:28.617Z,56.91
2022-12-25T18:05:28.609Z,55.76
2022-12-25T18:06:28.558Z,51.76
2022-12-25T18:07:28.568Z,52.04
2022-12-25T18:08:32.465Z,52.23
2022-12-25T18:09:29.651Z,52.30
2022-12-25T18:10:28.563Z,53.64
2022-12-25T18:11:28.545Z,53.90
2022-12-25T18:12:28.542Z,54.36
2022-12-25T18:13:28.524Z,53.84
2022-12-25T18:14:28.504Z,52.38
2022-12-25T18:15:28.535Z,53.09
2022-12-25T18:16:28.536Z,51.37
2022-12-25T18:17:28.514Z,52.05
2022-12-25T18:18:28.498Z,52.83
2022-12-25T18:19:28.479Z,51.54
